sensor_id;sensor_type;location;lat;lon;timestamp;pressure;altitude;pressure_sealevel;temperature;humidity
67931;BME280;63902;52.000;5.954;2023-02-18T00:00:40;101801.75;;;8.46;100.00
67931;BME280;63902;52.000;5.954;2023-02-18T00:01:40;101796.47;;;8.44;100.00
67931;BME280;63902;52.000;5.954;2023-02-18T00:02:42;101799.97;;;8.45;100.00
67931;BME280;63902;52.000;5.954;2023-02-18T00:03:43;101787.69;;;8.44;100.00
67931;BME280;63902;52.000;5.954;2023-02-18T00:04:43;101785.91;;;8.44;100.00
67931;BME280;63902;52.000;5.954;2023-02-18T00:05:44;101783.25;;;8.43;100.00
67931;BME280;63902;52.000;5.954;2023-02-18T00:06:44;101793.84;;;8.43;100.00
67931;BME280;63902;52.000;5.954;2023-02-18T00:07:45;101785.91;;;8.43;100.00
67931;BME280;63902;52.000;5.954;2023-02-18T00:08:46;101781.53;;;8.42;100.00
67931;BME280;63902;52.000;5.954;2023-02-18T00:09:47;101776.28;;;8.40;100.00
67931;BME280;63902;52.000;5.954;2023-02-18T00:10:47;101778.94;;;8.39;100.00
67931;BME280;63902;52.000;5.954;2023-02-18T00:11:48;101785.97;;;8.38;100.00
67931;BME280;63902;52.000;5.954;2023-02-18T00:12:48;101777.19;;;8.38;100.00
67931;BME280;63902;52.000;5.954;2023-02-18T00:13:50;101778.97;;;8.36;100.00
67931;BME280;63902;52.000;5.954;2023-02-18T00:14:52;101785.97;;;8.37;100.00
67931;BME280;63902;52.000;5.954;2023-02-18T00:15:52;101778.97;;;8.36;100.00
67931;BME280;63902;52.000;5.954;2023-02-18T00:16:53;101770.19;;;8.34;100.00
67931;BME280;63902;52.000;5.954;2023-02-18T00:17:53;101765.75;;;8.34;100.00
67931;BME280;63902;52.000;5.954;2023-02-18T00:18:54;101769.31;;;8.32;100.00
67931;BME280;63902;52.000;5.954;2023-02-18T00:19:55;101770.22;;;8.32;100.00
67931;BME280;63902;52.000;5.954;2023-02-18T00:20:55;101764.94;;;8.32;100.00
67931;BME280;63902;52.000;5.954;2023-02-18T00:21:56;101764.94;;;8.30;100.00
67931;BME280;63902;52.000;5.954;2023-02-18T00:22:56;101756.25;;;8.24;100.00
67931;BME280;63902;52.000;5.954;2023-02-18T00:23:57;101762.34;;;8.27;100.00
67931;BME280;63902;52.000;5.954;2023-02-18T00:24:57;101767.63;;;8.27;100.00
67931;BME280;63902;52.000;5.954;2023-02-18T00:25:59;101770.28;;;8.27;100.00
67931;BME280;63902;52.000;5.954;2023-02-18T00:27:00;101769.44;;;8.25;100.00
67931;BME280;63902;52.000;5.954;2023-02-18T00:28:00;101772.94;;;8.26;100.00
67931;BME280;63902;52.000;5.954;2023-02-18T00:29:01;101766.72;;;8.28;100.00
67931;BME280;63902;52.000;5.954;2023-02-18T00:30:04;101768.56;;;8.26;100.00
67931;BME280;63902;52.000;5.954;2023-02-18T00:31:06;101776.50;;;8.25;100.00
67931;BME280;63902;52.000;5.954;2023-02-18T00:32:07;101782.69;;;8.24;100.00
67931;BME280;63902;52.000;5.954;2023-02-18T00:33:08;101780.06;;;8.22;100.00
67931;BME280;63902;52.000;5.954;2023-02-18T00:34:09;101766.94;;;8.16;100.00
67931;BME280;63902;52.000;5.954;2023-02-18T00:35:10;101778.31;;;8.20;100.00
67931;BME280;63902;52.000;5.954;2023-02-18T00:36:13;101774.81;;;8.21;100.00
67931;BME280;63902;52.000;5.954;2023-02-18T00:37:14;101774.81;;;8.21;100.00
67931;BME280;63902;52.000;5.954;2023-02-18T00:38:15;101773.03;;;8.20;100.00
67931;BME280;63902;52.000;5.954;2023-02-18T00:39:15;101770.41;;;8.20;100.00
67931;BME280;63902;52.000;5.954;2023-02-18T00:40:16;101766.03;;;8.19;100.00
67931;BME280;63902;52.000;5.954;2023-02-18T00:41:17;101772.16;;;8.19;100.00
67931;BME280;63902;52.000;5.954;2023-02-18T00:42:18;101759.88;;;8.18;100.00
67931;BME280;63902;52.000;5.954;2023-02-18T00:43:19;101768.63;;;8.20;100.00
67931;BME280;63902;52.000;5.954;2023-02-18T00:44:19;101758.09;;;8.17;100.00
67931;BME280;63902;52.000;5.954;2023-02-18T00:45:21;101754.59;;;8.18;100.00
67931;BME280;63902;52.000;5.954;2023-02-18T00:46:22;101754.53;;;8.20;100.00
67931;BME280;63902;52.000;5.954;2023-02-18T00:47:23;101754.59;;;8.18;100.00
67931;BME280;63902;52.000;5.954;2023-02-18T00:48:24;101746.72;;;8.12;100.00
67931;BME280;63902;52.000;5.954;2023-02-18T00:49:24;101744.09;;;8.12;100.00
67931;BME280;63902;52.000;5.954;2023-02-18T00:50:25;101749.28;;;8.18;100.00
67931;BME280;63902;52.000;5.954;2023-02-18T00:51:25;101751.94;;;8.17;100.00
67931;BME280;63902;52.000;5.954;2023-02-18T00:52:26;101744.03;;;8.17;100.00
67931;BME280;63902;52.000;5.954;2023-02-18T00:53:26;101745.81;;;8.16;100.00
67931;BME280;63902;52.000;5.954;2023-02-18T00:54:27;101745.81;;;8.16;100.00
67931;BME280;63902;52.000;5.954;2023-02-18T00:55:27;101743.16;;;8.16;100.00
67931;BME280;63902;52.000;5.954;2023-02-18T00:56:28;101736.09;;;8.17;100.00
67931;BME280;63902;52.000;5.954;2023-02-18T00:57:29;101738.72;;;8.18;100.00
67931;BME280;63902;52.000;5.954;2023-02-18T00:58:29;101735.19;;;8.19;100.00
67931;BME280;63902;52.000;5.954;2023-02-18T00:59:30;101741.38;;;8.18;100.00
67931;BME280;63902;52.000;5.954;2023-02-18T01:00:32;101736.09;;;8.18;100.00
67931;BME280;63902;52.000;5.954;2023-02-18T01:01:32;101729.94;;;8.16;100.00
67931;BME280;63902;52.000;5.954;2023-02-18T01:02:33;101736.09;;;8.17;100.00
67931;BME280;63902;52.000;5.954;2023-02-18T01:03:34;101739.59;;;8.17;100.00
67931;BME280;63902;52.000;5.954;2023-02-18T01:04:34;101739.59;;;8.17;100.00
67931;BME280;63902;52.000;5.954;2023-02-18T01:05:35;101747.53;;;8.17;100.00
67931;BME280;63902;52.000;5.954;2023-02-18T01:06:36;101739.66;;;8.16;100.00
67931;BME280;63902;52.000;5.954;2023-02-18T01:07:36;101746.66;;;8.18;100.00
67931;BME280;63902;52.000;5.954;2023-02-18T01:08:39;101740.50;;;8.16;100.00
67931;BME280;63902;52.000;5.954;2023-02-18T01:09:39;101739.59;;;8.19;100.00
67931;BME280;63902;52.000;5.954;2023-02-18T01:10:41;101736.09;;;8.18;100.00
67931;BME280;63902;52.000;5.954;2023-02-18T01:11:42;101735.22;;;8.18;100.00
67931;BME280;63902;52.000;5.954;2023-02-18T01:12:43;101731.69;;;8.17;100.00
67931;BME280;63902;52.000;5.954;2023-02-18T01:13:43;101736.94;;;8.19;100.00
67931;BME280;63902;52.000;5.954;2023-02-18T01:14:44;101735.22;;;8.18;100.00
67931;BME280;63902;52.000;5.954;2023-02-18T01:15:46;101736.91;;;8.20;100.00
67931;BME280;63902;52.000;5.954;2023-02-18T01:16:46;101738.69;;;8.20;100.00
67931;BME280;63902;52.000;5.954;2023-02-18T01:17:47;101740.47;;;8.19;100.00
67931;BME280;63902;52.000;5.954;2023-02-18T01:18:47;101730.84;;;8.15;100.00
67931;BME280;63902;52.000;5.954;2023-02-18T01:19:48;101736.91;;;8.20;100.00
67931;BME280;63902;52.000;5.954;2023-02-18T01:20:48;101740.44;;;8.21;100.00
67931;BME280;63902;52.000;5.954;2023-02-18T01:21:49;101744.84;;;8.20;100.00
67931;BME280;63902;52.000;5.954;2023-02-18T01:22:49;101743.09;;;8.19;100.00
67931;BME280;63902;52.000;5.954;2023-02-18T01:23:50;101745.75;;;8.19;100.00
67931;BME280;63902;52.000;5.954;2023-02-18T01:24:50;101736.03;;;8.21;100.00
67931;BME280;63902;52.000;5.954;2023-02-18T01:25:51;101735.19;;;8.19;100.00
67931;BME280;63902;52.000;5.954;2023-02-18T01:26:52;101731.63;;;8.20;100.00
67931;BME280;63902;52.000;5.954;2023-02-18T01:27:52;101733.41;;;8.20;100.00
67931;BME280;63902;52.000;5.954;2023-02-18T01:28:53;101737.75;;;8.22;100.00
67931;BME280;63902;52.000;5.954;2023-02-18T01:29:53;101738.69;;;8.21;100.00
67931;BME280;63902;52.000;5.954;2023-02-18T01:30:55;101726.34;;;8.20;100.00
67931;BME280;63902;52.000;5.954;2023-02-18T01:31:56;101717.59;;;8.17;100.00
67931;BME280;63902;52.000;5.954;2023-02-18T01:32:56;101717.53;;;8.21;100.00
67931;BME280;63902;52.000;5.954;2023-02-18T01:33:57;101721.91;;;8.22;100.00
67931;BME280;63902;52.000;5.954;2023-02-18T01:34:59;101721.91;;;8.22;100.00
67931;BME280;63902;52.000;5.954;2023-02-18T01:36:00;101721.03;;;8.23;100.00
67931;BME280;63902;52.000;5.954;2023-02-18T01:37:00;101723.63;;;8.25;100.00
67931;BME280;63902;52.000;5.954;2023-02-18T01:38:01;101729.72;;;8.28;100.00
67931;BME280;63902;52.000;5.954;2023-02-18T01:39:02;101714.78;;;8.27;100.00
67931;BME280;63902;52.000;5.954;2023-02-18T01:40:03;101720.94;;;8.28;100.00
67931;BME280;63902;52.000;5.954;2023-02-18T01:41:04;101718.28;;;8.28;100.00
67931;BME280;63902;52.000;5.954;2023-02-18T01:42:05;101714.78;;;8.27;100.00
67931;BME280;63902;52.000;5.954;2023-02-18T01:43:05;101713.00;;;8.28;100.00
67931;BME280;63902;52.000;5.954;2023-02-18T01:44:17;101713.84;;;8.30;100.00
67931;BME280;63902;52.000;5.954;2023-02-18T01:45:56;101705.06;;;8.29;100.00
67931;BME280;63902;52.000;5.954;2023-02-18T01:46:56;101712.06;;;8.30;100.00
67931;BME280;63902;52.000;5.954;2023-02-18T01:47:57;101707.66;;;8.31;100.00
67931;BME280;63902;52.000;5.954;2023-02-18T01:48:59;101709.44;;;8.32;100.00
67931;BME280;63902;52.000;5.954;2023-02-18T01:50:00;101705.06;;;8.29;100.00
67931;BME280;63902;52.000;5.954;2023-02-18T01:51:05;101699.78;;;8.29;100.00
67931;BME280;63902;52.000;5.954;2023-02-18T01:52:10;101705.88;;;8.32;100.00
67931;BME280;63902;52.000;5.954;2023-02-18T01:53:13;101700.63;;;8.30;100.00
67931;BME280;63902;52.000;5.954;2023-02-18T01:54:18;101701.56;;;8.27;100.00
67931;BME280;63902;52.000;5.954;2023-02-18T01:55:21;101702.38;;;8.31;100.00
67931;BME280;63902;52.000;5.954;2023-02-18T01:56:25;101702.38;;;8.31;100.00
67931;BME280;63902;52.000;5.954;2023-02-18T01:57:31;101691.81;;;8.31;100.00
67931;BME280;63902;52.000;5.954;2023-02-18T01:58:32;101690.91;;;8.32;100.00
67931;BME280;63902;52.000;5.954;2023-02-18T01:59:36;101692.66;;;8.32;100.00
67931;BME280;63902;52.000;5.954;2023-02-18T02:00:38;101691.00;;;8.27;100.00
67931;BME280;63902;52.000;5.954;2023-02-18T02:01:43;101700.59;;;8.33;100.00
67931;BME280;63902;52.000;5.954;2023-02-18T02:02:46;101699.72;;;8.33;100.00
67931;BME280;63902;52.000;5.954;2023-02-18T02:03:47;101691.78;;;8.33;100.00
67931;BME280;63902;52.000;5.954;2023-02-18T02:04:48;101694.44;;;8.33;100.00
67931;BME280;63902;52.000;5.954;2023-02-18T02:05:48;101694.44;;;8.33;100.00
67931;BME280;63902;52.000;5.954;2023-02-18T02:06:49;101689.16;;;8.33;100.00
67931;BME280;63902;52.000;5.954;2023-02-18T02:07:51;101689.16;;;8.33;100.00
67931;BME280;63902;52.000;5.954;2023-02-18T02:08:56;101691.78;;;8.33;100.00
67931;BME280;63902;52.000;5.954;2023-02-18T02:09:59;101685.63;;;8.32;100.00
67931;BME280;63902;52.000;5.954;2023-02-18T02:11:16;101689.16;;;8.33;100.00
67931;BME280;63902;52.000;5.954;2023-02-18T02:12:42;101681.22;;;8.33;100.00
67931;BME280;63902;52.000;5.954;2023-02-18T02:14:00;101671.56;;;8.30;100.00
67931;BME280;63902;52.000;5.954;2023-02-18T02:15:15;101673.34;;;8.29;100.00
67931;BME280;63902;52.000;5.954;2023-02-18T02:16:23;101668.94;;;8.28;100.00
67931;BME280;63902;52.000;5.954;2023-02-18T02:17:36;101671.53;;;8.32;100.00
67931;BME280;63902;52.000;5.954;2023-02-18T02:18:49;101672.47;;;8.29;100.00
67931;BME280;63902;52.000;5.954;2023-02-18T02:20:18;101665.41;;;8.29;100.00
67931;BME280;63902;52.000;5.954;2023-02-18T02:22:03;101666.28;;;8.28;100.00
67931;BME280;63902;52.000;5.954;2023-02-18T02:23:33;101663.69;;;8.27;100.00
67931;BME280;63902;52.000;5.954;2023-02-18T02:25:15;101659.28;;;8.27;100.00
67931;BME280;63902;52.000;5.954;2023-02-18T02:26:45;101653.13;;;8.27;100.00
67931;BME280;63902;52.000;5.954;2023-02-18T02:28:35;101648.75;;;8.24;100.00
67931;BME280;63902;52.000;5.954;2023-02-18T02:30:00;101653.13;;;8.25;100.00
67931;BME280;63902;52.000;5.954;2023-02-18T02:31:44;101631.19;;;8.23;100.00
67931;BME280;63902;52.000;5.954;2023-02-18T02:33:22;101639.06;;;8.25;100.00
67931;BME280;63902;52.000;5.954;2023-02-18T02:34:33;101627.63;;;8.24;100.00
67931;BME280;63902;52.000;5.954;2023-02-18T02:35:40;101628.53;;;8.23;100.00
67931;BME280;63902;52.000;5.954;2023-02-18T02:36:48;101624.94;;;8.26;100.00
67931;BME280;63902;52.000;5.954;2023-02-18T02:37:58;101617.06;;;8.24;100.00
67931;BME280;63902;52.000;5.954;2023-02-18T02:39:06;101617.91;;;8.26;100.00
67931;BME280;63902;52.000;5.954;2023-02-18T02:40:18;101619.66;;;8.26;100.00
67931;BME280;63902;52.000;5.954;2023-02-18T02:41:28;101617.91;;;8.25;100.00
67931;BME280;63902;52.000;5.954;2023-02-18T02:42:39;101616.13;;;8.27;100.00
67931;BME280;63902;52.000;5.954;2023-02-18T02:43:48;101611.69;;;8.27;100.00
67931;BME280;63902;52.000;5.954;2023-02-18T02:44:54;101606.41;;;8.27;100.00
67931;BME280;63902;52.000;5.954;2023-02-18T02:46:01;101609.06;;;8.27;100.00
67931;BME280;63902;52.000;5.954;2023-02-18T02:47:08;101603.78;;;8.26;100.00
67931;BME280;63902;52.000;5.954;2023-02-18T02:48:15;101601.13;;;8.27;100.00
67931;BME280;63902;52.000;5.954;2023-02-18T02:49:31;101597.56;;;8.28;100.00
67931;BME280;63902;52.000;5.954;2023-02-18T02:50:38;101594.06;;;8.29;100.00
67931;BME280;63902;52.000;5.954;2023-02-18T02:51:42;101593.19;;;8.29;100.00
67931;BME280;63902;52.000;5.954;2023-02-18T02:52:49;101588.75;;;8.29;100.00
67931;BME280;63902;52.000;5.954;2023-02-18T02:53:51;101587.91;;;8.27;100.00
67931;BME280;63902;52.000;5.954;2023-02-18T02:54:52;101572.91;;;8.28;100.00
67931;BME280;63902;52.000;5.954;2023-02-18T02:55:52;101580.78;;;8.33;100.00
67931;BME280;63902;52.000;5.954;2023-02-18T02:57:04;101575.50;;;8.31;100.00
67931;BME280;63902;52.000;5.954;2023-02-18T02:58:05;101572.84;;;8.33;100.00
67931;BME280;63902;52.000;5.954;2023-02-18T02:59:08;101562.41;;;8.26;100.00
67931;BME280;63902;52.000;5.954;2023-02-18T03:00:11;101564.06;;;8.32;100.00
67931;BME280;63902;52.000;5.954;2023-02-18T03:01:20;101555.34;;;8.27;100.00
67931;BME280;63902;52.000;5.954;2023-02-18T03:02:35;101566.66;;;8.34;100.00
67931;BME280;63902;52.000;5.954;2023-02-18T03:03:52;101557.78;;;8.36;100.00
67931;BME280;63902;52.000;5.954;2023-02-18T03:05:09;101556.00;;;8.37;100.00
67931;BME280;63902;52.000;5.954;2023-02-18T03:06:40;101553.34;;;8.40;100.00
67931;BME280;63902;52.000;5.954;2023-02-18T03:07:57;101525.34;;;8.28;100.00
67931;BME280;63902;52.000;5.954;2023-02-18T03:09:08;101541.81;;;8.42;100.00
67931;BME280;63902;52.000;5.954;2023-02-18T03:10:20;101551.53;;;8.43;100.00
67931;BME280;63902;52.000;5.954;2023-02-18T03:11:28;101537.50;;;8.38;100.00
67931;BME280;63902;52.000;5.954;2023-02-18T03:12:35;101538.25;;;8.45;100.00
67931;BME280;63902;52.000;5.954;2023-02-18T03:13:50;101536.47;;;8.45;100.00
67931;BME280;63902;52.000;5.954;2023-02-18T03:14:57;101537.38;;;8.44;100.00
67931;BME280;63902;52.000;5.954;2023-02-18T03:16:10;101523.38;;;8.41;100.00
67931;BME280;63902;52.000;5.954;2023-02-18T03:17:14;101537.22;;;8.52;100.00
67931;BME280;63902;52.000;5.954;2023-02-18T03:18:25;101531.09;;;8.51;100.00
67931;BME280;63902;52.000;5.954;2023-02-18T03:19:33;101527.53;;;8.51;100.00
67931;BME280;63902;52.000;5.954;2023-02-18T03:20:38;101522.22;;;8.52;100.00
67931;BME280;63902;52.000;5.954;2023-02-18T03:21:43;101520.44;;;8.55;100.00
67931;BME280;63902;52.000;5.954;2023-02-18T03:22:47;101519.50;;;8.57;100.00
67931;BME280;63902;52.000;5.954;2023-02-18T03:23:52;101522.97;;;8.59;100.00
67931;BME280;63902;52.000;5.954;2023-02-18T03:24:56;101516.78;;;8.60;100.00
67931;BME280;63902;52.000;5.954;2023-02-18T03:25:58;101515.94;;;8.58;100.00
67931;BME280;63902;52.000;5.954;2023-02-18T03:27:03;101517.66;;;8.59;100.00
67931;BME280;63902;52.000;5.954;2023-02-18T03:28:08;101510.59;;;8.61;100.00
67931;BME280;63902;52.000;5.954;2023-02-18T03:29:11;101507.88;;;8.64;100.00
67931;BME280;63902;52.000;5.954;2023-02-18T03:30:15;101503.56;;;8.60;100.00
67931;BME280;63902;52.000;5.954;2023-02-18T03:31:19;101501.81;;;8.59;100.00
67931;BME280;63902;52.000;5.954;2023-02-18T03:32:22;101511.44;;;8.62;100.00
67931;BME280;63902;52.000;5.954;2023-02-18T03:33:27;101506.94;;;8.67;100.00
67931;BME280;63902;52.000;5.954;2023-02-18T03:34:31;101509.59;;;8.67;100.00
67931;BME280;63902;52.000;5.954;2023-02-18T03:35:33;101503.38;;;8.68;100.00
67931;BME280;63902;52.000;5.954;2023-02-18T03:36:37;101506.00;;;8.69;100.00
67931;BME280;63902;52.000;5.954;2023-02-18T03:37:41;101501.63;;;8.68;100.00
67931;BME280;63902;52.000;5.954;2023-02-18T03:38:44;101507.63;;;8.75;100.00
67931;BME280;63902;52.000;5.954;2023-02-18T03:39:51;101507.63;;;8.77;100.00
67931;BME280;63902;52.000;5.954;2023-02-18T03:40:55;101497.91;;;8.76;100.00
67931;BME280;63902;52.000;5.954;2023-02-18T03:41:55;101498.06;;;8.69;100.00
67931;BME280;63902;52.000;5.954;2023-02-18T03:42:56;101500.56;;;8.76;100.00
67931;BME280;63902;52.000;5.954;2023-02-18T03:43:59;101499.69;;;8.75;100.00
67931;BME280;63902;52.000;5.954;2023-02-18T03:45:00;101505.91;;;8.74;100.00
67931;BME280;63902;52.000;5.954;2023-02-18T03:46:01;101495.28;;;8.76;100.00
67931;BME280;63902;52.000;5.954;2023-02-18T03:47:02;101495.28;;;8.76;100.00
67931;BME280;63902;52.000;5.954;2023-02-18T03:48:03;101501.47;;;8.74;100.00
67931;BME280;63902;52.000;5.954;2023-02-18T03:49:03;101498.84;;;8.74;100.00
67931;BME280;63902;52.000;5.954;2023-02-18T03:50:05;101491.78;;;8.75;100.00
67931;BME280;63902;52.000;5.954;2023-02-18T03:51:06;101496.19;;;8.74;100.00
67931;BME280;63902;52.000;5.954;2023-02-18T03:52:08;101482.16;;;8.71;100.00
67931;BME280;63902;52.000;5.954;2023-02-18T03:53:08;101480.31;;;8.74;100.00
67931;BME280;63902;52.000;5.954;2023-02-18T03:54:09;101472.38;;;8.74;100.00
67931;BME280;63902;52.000;5.954;2023-02-18T03:55:10;101459.31;;;8.68;100.00
67931;BME280;63902;52.000;5.954;2023-02-18T03:56:10;101470.59;;;8.77;100.00
67931;BME280;63902;52.000;5.954;2023-02-18T03:57:11;101467.94;;;8.77;100.00
67931;BME280;63902;52.000;5.954;2023-02-18T03:58:11;101467.88;;;8.78;100.00
67931;BME280;63902;52.000;5.954;2023-02-18T03:59:12;101462.66;;;8.77;100.00
67931;BME280;63902;52.000;5.954;2023-02-18T04:00:13;101460.00;;;8.77;100.00
67931;BME280;63902;52.000;5.954;2023-02-18T04:01:14;101462.59;;;8.78;100.00
67931;BME280;63902;52.000;5.954;2023-02-18T04:02:15;101453.75;;;8.79;100.00
67931;BME280;63902;52.000;5.954;2023-02-18T04:03:15;101454.56;;;8.83;100.00
67931;BME280;63902;52.000;5.954;2023-02-18T04:04:15;101460.72;;;8.83;100.00
67931;BME280;63902;52.000;5.954;2023-02-18T04:05:16;101449.28;;;8.81;100.00
67931;BME280;63902;52.000;5.954;2023-02-18T04:06:17;101453.66;;;8.84;100.00
67931;BME280;63902;52.000;5.954;2023-02-18T04:07:18;101456.28;;;8.84;100.00
67931;BME280;63902;52.000;5.954;2023-02-18T04:08:19;101445.72;;;8.84;100.00
67931;BME280;63902;52.000;5.954;2023-02-18T04:09:20;101439.50;;;8.85;100.00
67931;BME280;63902;52.000;5.954;2023-02-18T04:10:20;101432.41;;;8.87;100.00
67931;BME280;63902;52.000;5.954;2023-02-18T04:11:20;101434.16;;;8.88;100.00
67931;BME280;63902;52.000;5.954;2023-02-18T04:12:21;101436.81;;;8.88;100.00
67931;BME280;63902;52.000;5.954;2023-02-18T04:13:21;101436.06;;;8.83;100.00
67931;BME280;63902;52.000;5.954;2023-02-18T04:14:22;101443.00;;;8.87;100.00
67931;BME280;63902;52.000;5.954;2023-02-18T04:15:22;101442.13;;;8.86;100.00
67931;BME280;63902;52.000;5.954;2023-02-18T04:16:23;101436.81;;;8.88;100.00
67931;BME280;63902;52.000;5.954;2023-02-18T04:17:23;101434.16;;;8.88;100.00
67931;BME280;63902;52.000;5.954;2023-02-18T04:18:24;101428.88;;;8.88;100.00
67931;BME280;63902;52.000;5.954;2023-02-18T04:19:24;101431.53;;;8.88;100.00
67931;BME280;63902;52.000;5.954;2023-02-18T04:20:25;101432.38;;;8.88;100.00
67931;BME280;63902;52.000;5.954;2023-02-18T04:21:25;101430.59;;;8.89;100.00
67931;BME280;63902;52.000;5.954;2023-02-18T04:22:27;101433.19;;;8.90;100.00
67931;BME280;63902;52.000;5.954;2023-02-18T04:23:28;101436.75;;;8.89;100.00
67931;BME280;63902;52.000;5.954;2023-02-18T04:24:28;101437.69;;;8.88;100.00
67931;BME280;63902;52.000;5.954;2023-02-18T04:25:29;101429.81;;;8.85;100.00
67931;BME280;63902;52.000;5.954;2023-02-18T04:26:29;101421.19;;;8.77;100.00
67931;BME280;63902;52.000;5.954;2023-02-18T04:27:30;101420.09;;;8.86;100.00
67931;BME280;63902;52.000;5.954;2023-02-18T04:28:30;101431.44;;;8.91;100.00
67931;BME280;63902;52.000;5.954;2023-02-18T04:29:31;101429.69;;;8.90;100.00
67931;BME280;63902;52.000;5.954;2023-02-18T04:30:32;101434.09;;;8.91;100.00
67931;BME280;63902;52.000;5.954;2023-02-18T04:31:32;101420.06;;;8.87;100.00
67931;BME280;63902;52.000;5.954;2023-02-18T04:32:33;101435.81;;;8.92;100.00
67931;BME280;63902;52.000;5.954;2023-02-18T04:33:33;101442.03;;;8.91;100.00
67931;BME280;63902;52.000;5.954;2023-02-18T04:34:34;101437.53;;;8.93;100.00
67931;BME280;63902;52.000;5.954;2023-02-18T04:35:34;101427.91;;;8.90;100.00
67931;BME280;63902;52.000;5.954;2023-02-18T04:36:35;101432.34;;;8.90;100.00
67931;BME280;63902;52.000;5.954;2023-02-18T04:37:36;101428.81;;;8.91;100.00
67931;BME280;63902;52.000;5.954;2023-02-18T04:38:37;101421.69;;;8.93;100.00
67931;BME280;63902;52.000;5.954;2023-02-18T04:39:37;101427.81;;;8.95;100.00
67931;BME280;63902;52.000;5.954;2023-02-18T04:40:38;101417.22;;;8.95;100.00
67931;BME280;63902;52.000;5.954;2023-02-18T04:41:38;101392.97;;;8.78;100.00
67931;BME280;63902;52.000;5.954;2023-02-18T04:42:39;101425.13;;;8.96;100.00
67931;BME280;63902;52.000;5.954;2023-02-18T04:43:39;101409.19;;;8.98;100.00
67931;BME280;63902;52.000;5.954;2023-02-18T04:44:40;101411.00;;;8.98;100.00
67931;BME280;63902;52.000;5.954;2023-02-18T04:45:40;101413.63;;;8.98;100.00
67931;BME280;63902;52.000;5.954;2023-02-18T04:46:41;101409.28;;;8.95;100.00
67931;BME280;63902;52.000;5.954;2023-02-18T04:47:41;101412.78;;;8.97;100.00
67931;BME280;63902;52.000;5.954;2023-02-18T04:48:42;101412.78;;;8.97;100.00
67931;BME280;63902;52.000;5.954;2023-02-18T04:49:42;101404.84;;;8.97;100.00
67931;BME280;63902;52.000;5.954;2023-02-18T04:50:43;101396.91;;;8.97;100.00
67931;BME280;63902;52.000;5.954;2023-02-18T04:51:44;101405.69;;;8.98;100.00
67931;BME280;63902;52.000;5.954;2023-02-18T04:52:46;101395.13;;;8.98;100.00
67931;BME280;63902;52.000;5.954;2023-02-18T04:53:46;101404.00;;;8.95;100.00
67931;BME280;63902;52.000;5.954;2023-02-18T04:54:47;101410.13;;;8.97;100.00
67931;BME280;63902;52.000;5.954;2023-02-18T04:55:49;101402.22;;;8.95;100.00
67931;BME280;63902;52.000;5.954;2023-02-18T04:56:49;101398.69;;;8.95;100.00
67931;BME280;63902;52.000;5.954;2023-02-18T04:57:50;101401.31;;;8.96;100.00
67931;BME280;63902;52.000;5.954;2023-02-18T04:58:50;101399.53;;;8.97;100.00
67931;BME280;63902;52.000;5.954;2023-02-18T04:59:50;101392.47;;;8.98;100.00
67931;BME280;63902;52.000;5.954;2023-02-18T05:00:51;101392.47;;;8.98;100.00
67931;BME280;63902;52.000;5.954;2023-02-18T05:01:52;101389.81;;;8.98;100.00
67931;BME280;63902;52.000;5.954;2023-02-18T05:02:52;101387.19;;;8.98;100.00
67931;BME280;63902;52.000;5.954;2023-02-18T05:03:52;101383.69;;;8.95;100.00
67931;BME280;63902;52.000;5.954;2023-02-18T05:04:53;101381.97;;;8.94;100.00
67931;BME280;63902;52.000;5.954;2023-02-18T05:05:54;101375.81;;;8.94;100.00
67931;BME280;63902;52.000;5.954;2023-02-18T05:06:54;101370.59;;;8.91;100.00
67931;BME280;63902;52.000;5.954;2023-02-18T05:07:56;101362.78;;;8.86;100.00
67931;BME280;63902;52.000;5.954;2023-02-18T05:08:56;101367.00;;;8.93;100.00
67931;BME280;63902;52.000;5.954;2023-02-18T05:09:57;101374.94;;;8.93;100.00
67931;BME280;63902;52.000;5.954;2023-02-18T05:10:57;101370.47;;;8.95;100.00
67931;BME280;63902;52.000;5.954;2023-02-18T05:11:58;101373.09;;;8.95;100.00
67931;BME280;63902;52.000;5.954;2023-02-18T05:12:58;101366.00;;;8.99;100.00
67931;BME280;63902;52.000;5.954;2023-02-18T05:13:59;101357.22;;;8.97;100.00
67931;BME280;63902;52.000;5.954;2023-02-18T05:14:59;101363.38;;;8.98;100.00
67931;BME280;63902;52.000;5.954;2023-02-18T05:16:00;101370.44;;;8.97;100.00
67931;BME280;63902;52.000;5.954;2023-02-18T05:17:00;101354.56;;;8.97;100.00
67931;BME280;63902;52.000;5.954;2023-02-18T05:18:01;101369.56;;;8.96;100.00
67931;BME280;63902;52.000;5.954;2023-02-18T05:19:01;101366.94;;;8.95;100.00
67931;BME280;63902;52.000;5.954;2023-02-18T05:20:04;101361.66;;;8.95;100.00
67931;BME280;63902;52.000;5.954;2023-02-18T05:21:05;101359.94;;;8.94;100.00
67931;BME280;63902;52.000;5.954;2023-02-18T05:22:05;101367.88;;;8.94;100.00
67931;BME280;63902;52.000;5.954;2023-02-18T05:23:08;101358.19;;;8.93;100.00
67931;BME280;63902;52.000;5.954;2023-02-18T05:24:08;101366.16;;;8.91;100.00
67931;BME280;63902;52.000;5.954;2023-02-18T05:25:09;101361.63;;;8.96;100.00
67931;BME280;63902;52.000;5.954;2023-02-18T05:26:09;101365.16;;;8.97;100.00
67931;BME280;63902;52.000;5.954;2023-02-18T05:27:10;101354.56;;;8.97;100.00
67931;BME280;63902;52.000;5.954;2023-02-18T05:28:10;101353.72;;;8.95;100.00
67931;BME280;63902;52.000;5.954;2023-02-18T05:29:11;101359.00;;;8.95;100.00
67931;BME280;63902;52.000;5.954;2023-02-18T05:30:11;101358.16;;;8.94;100.00
67931;BME280;63902;52.000;5.954;2023-02-18T05:31:12;101359.00;;;8.95;100.00
67931;BME280;63902;52.000;5.954;2023-02-18T05:32:12;101352.00;;;8.94;100.00
67931;BME280;63902;52.000;5.954;2023-02-18T05:33:13;101355.50;;;8.94;100.00